sensor_id;sensor_type;location;lat;lon;timestamp;temperature;humidity
12039;DHT22;6080;48.818;9.526;2023-04-03T03:01:05;4.00;99.90
12039;DHT22;6080;48.818;9.526;2023-04-03T03:03:31;4.00;99.90
12039;DHT22;6080;48.818;9.526;2023-04-03T03:06:17;4.00;99.90
12039;DHT22;6080;48.818;9.526;2023-04-03T03:08:43;4.10;99.90
12039;DHT22;6080;48.818;9.526;2023-04-03T03:11:10;4.10;99.90
12039;DHT22;6080;48.818;9.526;2023-04-03T03:13:37;4.10;99.90
12039;DHT22;6080;48.818;9.526;2023-04-03T03:16:03;4.10;99.90
12039;DHT22;6080;48.818;9.526;2023-04-03T03:18:29;4.10;99.90
12039;DHT22;6080;48.818;9.526;2023-04-03T03:20:56;4.00;99.90
12039;DHT22;6080;48.818;9.526;2023-04-03T03:23:24;4.10;99.90
12039;DHT22;6080;48.818;9.526;2023-04-03T03:25:58;4.10;99.90
12039;DHT22;6080;48.818;9.526;2023-04-03T03:28:24;4.10;99.90
12039;DHT22;6080;48.818;9.526;2023-04-03T03:30:50;4.10;99.90
12039;DHT22;6080;48.818;9.526;2023-04-03T03:33:17;4.10;99.90
12039;DHT22;6080;48.818;9.526;2023-04-03T03:35:43;4.10;99.90
12039;DHT22;6080;48.818;9.526;2023-04-03T03:38:09;4.10;99.90
12039;DHT22;6080;48.818;9.526;2023-04-03T03:40:35;4.10;99.90
12039;DHT22;6080;48.818;9.526;2023-04-03T03:43:01;4.10;99.90
12039;DHT22;6080;48.818;9.526;2023-04-03T03:45:26;4.10;99.90
12039;DHT22;6080;48.818;9.526;2023-04-03T03:47:53;4.10;99.90
12039;DHT22;6080;48.818;9.526;2023-04-03T03:50:18;4.00;99.90
12039;DHT22;6080;48.818;9.526;2023-04-03T03:52:44;4.00;99.90
12039;DHT22;6080;48.818;9.526;2023-04-03T03:55:10;4.00;99.90
12039;DHT22;6080;48.818;9.526;2023-04-03T03:57:36;4.00;99.90
12039;DHT22;6080;48.818;9.526;2023-04-03T04:00:03;4.10;99.90
12039;DHT22;6080;48.818;9.526;2023-04-03T04:02:29;4.10;99.90
12039;DHT22;6080;48.818;9.526;2023-04-03T04:04:55;4.10;99.90
12039;DHT22;6080;48.818;9.526;2023-04-03T04:07:21;4.10;99.90
12039;DHT22;6080;48.818;9.526;2023-04-03T04:09:47;4.00;99.90
12039;DHT22;6080;48.818;9.526;2023-04-03T04:12:13;4.10;99.90
12039;DHT22;6080;48.818;9.526;2023-04-03T04:14:39;4.10;99.90
12039;DHT22;6080;48.818;9.526;2023-04-03T04:17:05;4.00;99.90
12039;DHT22;6080;48.818;9.526;2023-04-03T04:19:30;4.10;99.90
12039;DHT22;6080;48.818;9.526;2023-04-03T04:21:56;4.10;99.90
12039;DHT22;6080;48.818;9.526;2023-04-03T04:24:22;4.10;99.90
12039;DHT22;6080;48.818;9.526;2023-04-03T04:26:48;4.10;99.90
12039;DHT22;6080;48.818;9.526;2023-04-03T04:29:14;4.10;99.90
12039;DHT22;6080;48.818;9.526;2023-04-03T04:31:40;4.10;99.90
12039;DHT22;6080;48.818;9.526;2023-04-03T04:34:05;4.20;99.90
12039;DHT22;6080;48.818;9.526;2023-04-03T04:36:31;4.20;99.90
12039;DHT22;6080;48.818;9.526;2023-04-03T04:38:57;4.30;99.90
12039;DHT22;6080;48.818;9.526;2023-04-03T04:41:24;4.30;99.90
12039;DHT22;6080;48.818;9.526;2023-04-03T04:43:51;4.30;99.90
12039;DHT22;6080;48.818;9.526;2023-04-03T04:46:17;4.30;99.90
12039;DHT22;6080;48.818;9.526;2023-04-03T04:48:44;4.20;99.90
12039;DHT22;6080;48.818;9.526;2023-04-03T04:51:10;4.20;99.90
12039;DHT22;6080;48.818;9.526;2023-04-03T04:53:36;4.20;99.90
12039;DHT22;6080;48.818;9.526;2023-04-03T04:56:03;4.10;99.90
12039;DHT22;6080;48.818;9.526;2023-04-03T04:58:29;4.10;99.90
12039;DHT22;6080;48.818;9.526;2023-04-03T05:01:13;4.00;99.90
12039;DHT22;6080;48.818;9.526;2023-04-03T05:03:39;4.10;99.90
12039;DHT22;6080;48.818;9.526;2023-04-03T05:06:05;4.00;99.90
12039;DHT22;6080;48.818;9.526;2023-04-03T05:08:31;3.90;99.90
12039;DHT22;6080;48.818;9.526;2023-04-03T05:10:57;3.90;99.90
12039;DHT22;6080;48.818;9.526;2023-04-03T05:13:23;3.80;99.90
12039;DHT22;6080;48.818;9.526;2023-04-03T05:15:49;3.80;99.90
12039;DHT22;6080;48.818;9.526;2023-04-03T05:18:15;3.70;99.90
12039;DHT22;6080;48.818;9.526;2023-04-03T05:20:40;3.70;99.90
12039;DHT22;6080;48.818;9.526;2023-04-03T05:23:06;3.60;99.90
12039;DHT22;6080;48.818;9.526;2023-04-03T05:25:32;3.50;99.90
12039;DHT22;6080;48.818;9.526;2023-04-03T05:27:58;3.50;99.90
12039;DHT22;6080;48.818;9.526;2023-04-03T05:30:24;3.50;99.90
12039;DHT22;6080;48.818;9.526;2023-04-03T05:32:50;3.60;99.90
12039;DHT22;6080;48.818;9.526;2023-04-03T05:35:15;3.70;99.90
12039;DHT22;6080;48.818;9.526;2023-04-03T05:37:41;3.70;99.90
12039;DHT22;6080;48.818;9.526;2023-04-03T05:40:08;3.80;99.90
12039;DHT22;6080;48.818;9.526;2023-04-03T05:42:34;3.70;99.90
12039;DHT22;6080;48.818;9.526;2023-04-03T05:45:00;3.80;99.90
12039;DHT22;6080;48.818;9.526;2023-04-03T05:47:26;3.80;99.90
12039;DHT22;6080;48.818;9.526;2023-04-03T05:49:52;3.80;99.90
12039;DHT22;6080;48.818;9.526;2023-04-03T05:52:25;3.90;99.90
12039;DHT22;6080;48.818;9.526;2023-04-03T05:54:52;4.00;99.90
12039;DHT22;6080;48.818;9.526;2023-04-03T05:57:18;4.00;99.90
12039;DHT22;6080;48.818;9.526;2023-04-03T05:59:44;4.10;99.90
12039;DHT22;6080;48.818;9.526;2023-04-03T06:02:16;4.10;99.90
12039;DHT22;6080;48.818;9.526;2023-04-03T06:04:42;4.30;99.90
12039;DHT22;6080;48.818;9.526;2023-04-03T06:07:12;4.30;99.90
12039;DHT22;6080;48.818;9.526;2023-04-03T06:09:38;4.40;99.90
12039;DHT22;6080;48.818;9.526;2023-04-03T06:12:04;4.40;99.90
12039;DHT22;6080;48.818;9.526;2023-04-03T06:14:30;4.50;99.90
12039;DHT22;6080;48.818;9.526;2023-04-03T06:16:56;4.50;99.90
12039;DHT22;6080;48.818;9.526;2023-04-03T06:19:22;4.50;99.90
12039;DHT22;6080;48.818;9.526;2023-04-03T06:21:47;4.40;99.90
12039;DHT22;6080;48.818;9.526;2023-04-03T06:24:15;4.50;99.90
12039;DHT22;6080;48.818;9.526;2023-04-03T06:26:41;4.60;99.90
12039;DHT22;6080;48.818;9.526;2023-04-03T06:29:08;4.70;99.90
12039;DHT22;6080;48.818;9.526;2023-04-03T06:31:34;4.80;99.90
12039;DHT22;6080;48.818;9.526;2023-04-03T06:34:02;4.90;99.90
12039;DHT22;6080;48.818;9.526;2023-04-03T06:36:28;5.00;99.90
12039;DHT22;6080;48.818;9.526;2023-04-03T06:38:54;4.90;99.90
12039;DHT22;6080;48.818;9.526;2023-04-03T06:41:20;4.90;99.90
12039;DHT22;6080;48.818;9.526;2023-04-03T06:43:47;4.80;99.90
12039;DHT22;6080;48.818;9.526;2023-04-03T06:46:18;4.80;99.90
12039;DHT22;6080;48.818;9.526;2023-04-03T06:48:44;5.00;99.90
12039;DHT22;6080;48.818;9.526;2023-04-03T06:51:18;5.10;99.90
12039;DHT22;6080;48.818;9.526;2023-04-03T06:53:44;5.20;99.90
12039;DHT22;6080;48.818;9.526;2023-04-03T06:56:11;5.20;99.90
12039;DHT22;6080;48.818;9.526;2023-04-03T06:58:37;5.40;99.90
12039;DHT22;6080;48.818;9.526;2023-04-03T07:01:03;5.30;99.90
12039;DHT22;6080;48.818;9.526;2023-04-03T07:03:29;5.30;99.90
12039;DHT22;6080;48.818;9.526;2023-04-03T07:05:55;5.50;99.90
12039;DHT22;6080;48.818;9.526;2023-04-03T07:08:21;5.50;99.90
12039;DHT22;6080;48.818;9.526;2023-04-03T07:10:48;5.30;99.90
12039;DHT22;6080;48.818;9.526;2023-04-03T07:13:15;5.30;99.90
12039;DHT22;6080;48.818;9.526;2023-04-03T07:15:41;5.50;99.90
12039;DHT22;6080;48.818;9.526;2023-04-03T07:18:07;5.50;99.90
12039;DHT22;6080;48.818;9.526;2023-04-03T07:20:33;5.50;99.90
12039;DHT22;6080;48.818;9.526;2023-04-03T07:23:00;5.50;99.90
12039;DHT22;6080;48.818;9.526;2023-04-03T07:25:28;5.60;99.90
12039;DHT22;6080;48.818;9.526;2023-04-03T07:27:54;5.60;99.90
12039;DHT22;6080;48.818;9.526;2023-04-03T07:30:20;5.70;99.90
12039;DHT22;6080;48.818;9.526;2023-04-03T07:32:46;5.70;99.90
12039;DHT22;6080;48.818;9.526;2023-04-03T07:35:12;5.60;99.90
12039;DHT22;6080;48.818;9.526;2023-04-03T07:37:38;5.50;99.90
12039;DHT22;6080;48.818;9.526;2023-04-03T07:40:05;5.70;99.90
12039;DHT22;6080;48.818;9.526;2023-04-03T07:42:32;5.90;99.90
12039;DHT22;6080;48.818;9.526;2023-04-03T07:44:58;5.90;99.90
12039;DHT22;6080;48.818;9.526;2023-04-03T07:47:24;6.00;99.90
12039;DHT22;6080;48.818;9.526;2023-04-03T07:49:49;5.90;99.90
12039;DHT22;6080;48.818;9.526;2023-04-03T07:52:15;6.00;99.90
12039;DHT22;6080;48.818;9.526;2023-04-03T07:54:42;5.90;99.90
12039;DHT22;6080;48.818;9.526;2023-04-03T07:57:07;5.90;99.90
12039;DHT22;6080;48.818;9.526;2023-04-03T07:59:33;5.80;99.90
12039;DHT22;6080;48.818;9.526;2023-04-03T08:01:59;5.90;99.90
12039;DHT22;6080;48.818;9.526;2023-04-03T08:04:25;5.90;99.90
12039;DHT22;6080;48.818;9.526;2023-04-03T08:06:52;6.00;99.90
12039;DHT22;6080;48.818;9.526;2023-04-03T08:09:18;6.40;99.90
12039;DHT22;6080;48.818;9.526;2023-04-03T08:11:45;7.00;99.90
12039;DHT22;6080;48.818;9.526;2023-04-03T08:14:12;7.30;99.90
12039;DHT22;6080;48.818;9.526;2023-04-03T08:16:43;7.10;99.90
12039;DHT22;6080;48.818;9.526;2023-04-03T08:19:09;6.90;99.90
12039;DHT22;6080;48.818;9.526;2023-04-03T08:21:36;7.50;99.90
12039;DHT22;6080;48.818;9.526;2023-04-03T08:24:02;7.50;99.90
12039;DHT22;6080;48.818;9.526;2023-04-03T08:26:28;7.90;99.90
12039;DHT22;6080;48.818;9.526;2023-04-03T08:28:54;8.30;99.90
12039;DHT22;6080;48.818;9.526;2023-04-03T08:31:20;8.20;99.90
12039;DHT22;6080;48.818;9.526;2023-04-03T08:33:46;7.60;99.90
12039;DHT22;6080;48.818;9.526;2023-04-03T08:36:27;8.00;99.90
12039;DHT22;6080;48.818;9.526;2023-04-03T08:38:54;8.00;99.90
12039;DHT22;6080;48.818;9.526;2023-04-03T08:41:29;8.10;99.90
12039;DHT22;6080;48.818;9.526;2023-04-03T08:47:21;8.50;99.90
12039;DHT22;6080;48.818;9.526;2023-04-03T08:50:00;8.10;99.90
12039;DHT22;6080;48.818;9.526;2023-04-03T08:52:47;8.20;99.90
12039;DHT22;6080;48.818;9.526;2023-04-03T08:58:04;8.50;99.90
12039;DHT22;6080;48.818;9.526;2023-04-03T09:00:49;8.60;99.90
12039;DHT22;6080;48.818;9.526;2023-04-03T09:03:17;8.70;99.90
12039;DHT22;6080;48.818;9.526;2023-04-03T09:20:19;7.70;99.90
12039;DHT22;6080;48.818;9.526;2023-04-03T09:22:47;7.60;99.90
12039;DHT22;6080;48.818;9.526;2023-04-03T09:25:31;7.50;99.90
12039;DHT22;6080;48.818;9.526;2023-04-03T09:28:01;7.50;99.90
12039;DHT22;6080;48.818;9.526;2023-04-03T09:30:28;7.50;99.90
12039;DHT22;6080;48.818;9.526;2023-04-03T09:32:56;7.50;99.90
12039;DHT22;6080;48.818;9.526;2023-04-03T09:35:29;7.60;99.90
12039;DHT22;6080;48.818;9.526;2023-04-03T09:40:43;7.80;99.90
12039;DHT22;6080;48.818;9.526;2023-04-03T09:43:29;7.60;99.90
12039;DHT22;6080;48.818;9.526;2023-04-03T09:46:16;7.50;99.90
12039;DHT22;6080;48.818;9.526;2023-04-03T09:49:12;7.40;99.90
12039;DHT22;6080;48.818;9.526;2023-04-03T09:51:37;7.20;99.90
12039;DHT22;6080;48.818;9.526;2023-04-03T09:57:08;7.30;99.90
12039;DHT22;6080;48.818;9.526;2023-04-03T09:59:43;7.30;99.90
12039;DHT22;6080;48.818;9.526;2023-04-03T10:05:02;7.60;99.90
12039;DHT22;6080;48.818;9.526;2023-04-03T10:09:59;7.70;99.90
12039;DHT22;6080;48.818;9.526;2023-04-03T10:12:27;7.50;99.90
12039;DHT22;6080;48.818;9.526;2023-04-03T10:20:02;7.30;99.90
12039;DHT22;6080;48.818;9.526;2023-04-03T10:22:47;7.30;99.90
12039;DHT22;6080;48.818;9.526;2023-04-03T10:25:21;7.40;99.90
12039;DHT22;6080;48.818;9.526;2023-04-03T10:30:28;8.10;99.90
12039;DHT22;6080;48.818;9.526;2023-04-03T10:33:09;8.00;99.90
12039;DHT22;6080;48.818;9.526;2023-04-03T10:35:45;7.70;99.90
12039;DHT22;6080;48.818;9.526;2023-04-03T10:38:39;7.50;99.90
12039;DHT22;6080;48.818;9.526;2023-04-03T10:44:04;7.20;99.90
12039;DHT22;6080;48.818;9.526;2023-04-03T10:46:55;7.30;99.90
12039;DHT22;6080;48.818;9.526;2023-04-03T10:52:35;7.80;99.90
12039;DHT22;6080;48.818;9.526;2023-04-03T10:57:49;7.70;99.90
12039;DHT22;6080;48.818;9.526;2023-04-03T11:00:19;7.60;99.90
12039;DHT22;6080;48.818;9.526;2023-04-03T11:03:03;7.60;99.90
12039;DHT22;6080;48.818;9.526;2023-04-03T11:05:39;7.80;99.90
12039;DHT22;6080;48.818;9.526;2023-04-03T11:10:46;8.20;99.90
12039;DHT22;6080;48.818;9.526;2023-04-03T11:16:18;8.10;99.90
12039;DHT22;6080;48.818;9.526;2023-04-03T11:19:01;7.80;99.90
12039;DHT22;6080;48.818;9.526;2023-04-03T11:21:33;7.60;99.90
12039;DHT22;6080;48.818;9.526;2023-04-03T11:24:03;7.50;99.90
12039;DHT22;6080;48.818;9.526;2023-04-03T11:26:38;7.60;99.90
12039;DHT22;6080;48.818;9.526;2023-04-03T11:29:15;8.00;99.90
12039;DHT22;6080;48.818;9.526;2023-04-03T11:34:50;8.40;99.90
12039;DHT22;6080;48.818;9.526;2023-04-03T11:40:28;8.40;99.90
12039;DHT22;6080;48.818;9.526;2023-04-03T11:43:06;8.40;99.90
12039;DHT22;6080;48.818;9.526;2023-04-03T11:45:57;7.80;99.90
12039;DHT22;6080;48.818;9.526;2023-04-03T11:53:42;7.50;99.90
12039;DHT22;6080;48.818;9.526;2023-04-03T12:01:48;7.90;99.90
12039;DHT22;6080;48.818;9.526;2023-04-03T12:04:16;8.20;99.90
12039;DHT22;6080;48.818;9.526;2023-04-03T12:12:00;8.50;99.90
12039;DHT22;6080;48.818;9.526;2023-04-03T12:14:28;8.80;99.90
12039;DHT22;6080;48.818;9.526;2023-04-03T12:16:55;9.10;98.90
12039;DHT22;6080;48.818;9.526;2023-04-03T12:19:36;9.10;99.50
12039;DHT22;6080;48.818;9.526;2023-04-03T12:24:31;9.40;96.60
12039;DHT22;6080;48.818;9.526;2023-04-03T12:40:24;8.60;99.90
12039;DHT22;6080;48.818;9.526;2023-04-03T12:45:27;8.80;99.90
12039;DHT22;6080;48.818;9.526;2023-04-03T12:47:55;10.40;97.70
12039;DHT22;6080;48.818;9.526;2023-04-03T12:50:28;11.10;95.30
12039;DHT22;6080;48.818;9.526;2023-04-03T12:53:05;11.00;95.50
12039;DHT22;6080;48.818;9.526;2023-04-03T12:55:32;10.70;92.30
12039;DHT22;6080;48.818;9.526;2023-04-03T12:58:17;10.00;91.80
12039;DHT22;6080;48.818;9.526;2023-04-03T13:00:46;9.40;92.90
12039;DHT22;6080;48.818;9.526;2023-04-03T13:03:23;9.10;93.50
12039;DHT22;6080;48.818;9.526;2023-04-03T13:05:50;9.20;93.60
12039;DHT22;6080;48.818;9.526;2023-04-03T13:08:17;10.50;92.10
12039;DHT22;6080;48.818;9.526;2023-04-03T13:13:21;13.40;79.80
12039;DHT22;6080;48.818;9.526;2023-04-03T13:15:49;13.00;80.50
12039;DHT22;6080;48.818;9.526;2023-04-03T13:18:42;11.70;81.10
12039;DHT22;6080;48.818;9.526;2023-04-03T13:21:19;10.30;85.90
12039;DHT22;6080;48.818;9.526;2023-04-03T13:23:50;9.60;89.80
12039;DHT22;6080;48.818;9.526;2023-04-03T13:26:17;9.30;91.20
12039;DHT22;6080;48.818;9.526;2023-04-03T13:28:45;9.10;91.90
12039;DHT22;6080;48.818;9.526;2023-04-03T13:33:58;9.90;91.40
12039;DHT22;6080;48.818;9.526;2023-04-03T13:36:34;9.80;90.60
12039;DHT22;6080;48.818;9.526;2023-04-03T13:39:22;9.70;90.40
12039;DHT22;6080;48.818;9.526;2023-04-03T13:41:51;9.50;89.80
12039;DHT22;6080;48.818;9.526;2023-04-03T13:46:49;12.10;84.50
12039;DHT22;6080;48.818;9.526;2023-04-03T13:49:36;13.70;78.70
12039;DHT22;6080;48.818;9.526;2023-04-03T13:52:31;15.80;71.70
12039;DHT22;6080;48.818;9.526;2023-04-03T13:55:01;15.40;65.00
12039;DHT22;6080;48.818;9.526;2023-04-03T13:57:28;13.40;67.80
12039;DHT22;6080;48.818;9.526;2023-04-03T13:59:54;12.00;72.70
12039;DHT22;6080;48.818;9.526;2023-04-03T14:02:32;10.90;77.40
12039;DHT22;6080;48.818;9.526;2023-04-03T14:05:00;9.90;83.10
12039;DHT22;6080;48.818;9.526;2023-04-03T14:07:29;9.70;85.20
12039;DHT22;6080;48.818;9.526;2023-04-03T14:09:56;9.80;86.40
12039;DHT22;6080;48.818;9.526;2023-04-03T14:12:34;9.60;84.60
12039;DHT22;6080;48.818;9.526;2023-04-03T14:15:04;9.30;83.10
12039;DHT22;6080;48.818;9.526;2023-04-03T14:17:31;9.20;84.80
12039;DHT22;6080;48.818;9.526;2023-04-03T14:19:58;9.30;84.60
12039;DHT22;6080;48.818;9.526;2023-04-03T14:22:27;9.50;83.10
12039;DHT22;6080;48.818;9.526;2023-04-03T14:24:54;9.20;83.30
12039;DHT22;6080;48.818;9.526;2023-04-03T14:27:22;8.80;85.80
12039;DHT22;6080;48.818;9.526;2023-04-03T14:29:49;8.60;85.40
12039;DHT22;6080;48.818;9.526;2023-04-03T14:32:17;8.50;88.90
12039;DHT22;6080;48.818;9.526;2023-04-03T14:34:44;8.50;89.30
12039;DHT22;6080;48.818;9.526;2023-04-03T14:37:15;8.60;88.30
12039;DHT22;6080;48.818;9.526;2023-04-03T14:39:42;8.80;89.50
12039;DHT22;6080;48.818;9.526;2023-04-03T14:42:19;8.90;88.30
12039;DHT22;6080;48.818;9.526;2023-04-03T14:44:45;9.00;87.80
12039;DHT22;6080;48.818;9.526;2023-04-03T14:47:13;8.90;88.20
12039;DHT22;6080;48.818;9.526;2023-04-03T14:49:40;8.80;87.90
12039;DHT22;6080;48.818;9.526;2023-04-03T14:52:06;8.80;89.50
12039;DHT22;6080;48.818;9.526;2023-04-03T14:54:32;8.70;88.40
12039;DHT22;6080;48.818;9.526;2023-04-03T14:56:59;8.40;90.10
12039;DHT22;6080;48.818;9.526;2023-04-03T14:59:26;8.40;90.50
12039;DHT22;6080;48.818;9.526;2023-04-03T15:01:52;9.90;88.90
12039;DHT22;6080;48.818;9.526;2023-04-03T15:04:20;12.10;80.40
12039;DHT22;6080;48.818;9.526;2023-04-03T15:06:47;13.60;76.70
12039;DHT22;6080;48.818;9.526;2023-04-03T15:09:23;15.10;70.70
12039;DHT22;6080;48.818;9.526;2023-04-03T15:11:50;15.10;65.70
12039;DHT22;6080;48.818;9.526;2023-04-03T15:14:17;13.00;67.00
12039;DHT22;6080;48.818;9.526;2023-04-03T15:16:43;11.40;70.00
12039;DHT22;6080;48.818;9.526;2023-04-03T15:19:10;10.10;74.90
12039;DHT22;6080;48.818;9.526;2023-04-03T15:21:37;9.10;78.40
12039;DHT22;6080;48.818;9.526;2023-04-03T15:24:04;8.70;79.50
12039;DHT22;6080;48.818;9.526;2023-04-03T15:26:30;8.60;79.40
12039;DHT22;6080;48.818;9.526;2023-04-03T15:28:57;8.60;79.50
12039;DHT22;6080;48.818;9.526;2023-04-03T15:31:23;8.80;79.30
12039;DHT22;6080;48.818;9.526;2023-04-03T15:33:49;10.60;79.20
12039;DHT22;6080;48.818;9.526;2023-04-03T15:36:15;13.20;71.60
12039;DHT22;6080;48.818;9.526;2023-04-03T15:38:41;13.90;65.90
12039;DHT22;6080;48.818;9.526;2023-04-03T15:41:06;12.80;66.50
12039;DHT22;6080;48.818;9.526;2023-04-03T15:43:32;11.20;70.60
12039;DHT22;6080;48.818;9.526;2023-04-03T15:45:59;10.30;74.30
12039;DHT22;6080;48.818;9.526;2023-04-03T15:48:26;10.10;75.40
12039;DHT22;6080;48.818;9.526;2023-04-03T15:50:53;9.80;75.50
12039;DHT22;6080;48.818;9.526;2023-04-03T15:53:18;9.10;76.00
12039;DHT22;6080;48.818;9.526;2023-04-03T15:55:44;8.60;77.40
12039;DHT22;6080;48.818;9.526;2023-04-03T15:58:10;8.30;78.30
12039;DHT22;6080;48.818;9.526;2023-04-03T16:00:36;8.10;79.40
12039;DHT22;6080;48.818;9.526;2023-04-03T16:03:09;8.00;80.50
12039;DHT22;6080;48.818;9.526;2023-04-03T16:05:37;8.30;81.70
12039;DHT22;6080;48.818;9.526;2023-04-03T16:08:04;9.50;79.10
12039;DHT22;6080;48.818;9.526;2023-04-03T16:10:30;9.70;78.70
12039;DHT22;6080;48.818;9.526;2023-04-03T16:12:56;9.60;76.30
12039;DHT22;6080;48.818;9.526;2023-04-03T16:15:23;9.70;77.70
12039;DHT22;6080;48.818;9.526;2023-04-03T16:17:50;10.80;75.40
12039;DHT22;6080;48.818;9.526;2023-04-03T16:20:16;10.30;73.60
12039;DHT22;6080;48.818;9.526;2023-04-03T16:22:43;9.00;76.30
12039;DHT22;6080;48.818;9.526;2023-04-03T16:25:10;8.50;78.00
12039;DHT22;6080;48.818;9.526;2023-04-03T16:27:36;8.10;78.40
12039;DHT22;6080;48.818;9.526;2023-04-03T16:30:02;7.90;80.40
12039;DHT22;6080;48.818;9.526;2023-04-03T16:32:30;7.60;81.20
12039;DHT22;6080;48.818;9.526;2023-04-03T16:34:57;7.50;81.80
12039;DHT22;6080;48.818;9.526;2023-04-03T16:37:23;7.40;83.60
12039;DHT22;6080;48.818;9.526;2023-04-03T16:39:49;7.30;83.80
12039;DHT22;6080;48.818;9.526;2023-04-03T16:42:15;7.30;84.40
12039;DHT22;6080;48.818;9.526;2023-04-03T16:44:41;7.20;83.70
12039;DHT22;6080;48.818;9.526;2023-04-03T16:47:07;7.30;85.00
12039;DHT22;6080;48.818;9.526;2023-04-03T16:49:34;7.40;85.20
12039;DHT22;6080;48.818;9.526;2023-04-03T16:52:01;7.50;85.20
12039;DHT22;6080;48.818;9.526;2023-04-03T16:54:27;7.60;84.20
12039;DHT22;6080;48.818;9.526;2023-04-03T16:56:53;7.70;84.00
12039;DHT22;6080;48.818;9.526;2023-04-03T16:59:19;7.70;83.90
12039;DHT22;6080;48.818;9.526;2023-04-03T17:01:45;7.60;85.20
12039;DHT22;6080;48.818;9.526;2023-04-03T17:04:11;7.60;84.80
12039;DHT22;6080;48.818;9.526;2023-04-03T17:06:38;7.60;85.10
12039;DHT22;6080;48.818;9.526;2023-04-03T17:09:04;7.60;85.80
12039;DHT22;6080;48.818;9.526;2023-04-03T17:11:30;7.60;85.00
12039;DHT22;6080;48.818;9.526;2023-04-03T17:13:56;7.40;84.00
12039;DHT22;6080;48.818;9.526;2023-04-03T17:16:23;7.20;83.60
12039;DHT22;6080;48.818;9.526;2023-04-03T17:18:49;7.20;84.40
12039;DHT22;6080;48.818;9.526;2023-04-03T17:21:16;7.20;84.90
12039;DHT22;6080;48.818;9.526;2023-04-03T17:23:46;7.20;85.70
12039;DHT22;6080;48.818;9.526;2023-04-03T17:26:12;7.10;86.20
12039;DHT22;6080;48.818;9.526;2023-04-03T17:28:38;7.10;86.60
12039;DHT22;6080;48.818;9.526;2023-04-03T17:31:06;7.00;86.90
12039;DHT22;6080;48.818;9.526;2023-04-03T17:33:31;7.00;88.40
12039;DHT22;6080;48.818;9.526;2023-04-03T17:35:59;7.00;89.60
12039;DHT22;6080;48.818;9.526;2023-04-03T17:38:26;7.00;89.00
12039;DHT22;6080;48.818;9.526;2023-04-03T17:40:56;6.90;88.40
12039;DHT22;6080;48.818;9.526;2023-04-03T17:43:22;6.80;88.50
12039;DHT22;6080;48.818;9.526;2023-04-03T17:45:47;6.80;88.60
12039;DHT22;6080;48.818;9.526;2023-04-03T17:48:13;6.80;90.00
12039;DHT22;6080;48.818;9.526;2023-04-03T17:50:39;6.80;89.30
12039;DHT22;6080;48.818;9.526;2023-04-03T17:53:05;6.70;89.70
12039;DHT22;6080;48.818;9.526;2023-04-03T17:55:31;6.60;90.50
12039;DHT22;6080;48.818;9.526;2023-04-03T17:57:57;6.60;90.30
12039;DHT22;6080;48.818;9.526;2023-04-03T18:00:23;6.40;90.20
12039;DHT22;6080;48.818;9.526;2023-04-03T18:02:52;6.40;90.50
12039;DHT22;6080;48.818;9.526;2023-04-03T18:05:19;6.30;90.90
12039;DHT22;6080;48.818;9.526;2023-04-03T18:07:45;6.30;91.50
12039;DHT22;6080;48.818;9.526;2023-04-03T18:10:11;6.20;90.90
12039;DHT22;6080;48.818;9.526;2023-04-03T18:12:39;6.20;90.90
12039;DHT22;6080;48.818;9.526;2023-04-03T18:15:07;6.10;91.10
12039;DHT22;6080;48.818;9.526;2023-04-03T18:17:33;6.10;92.40
12039;DHT22;6080;48.818;9.526;2023-04-03T18:19:59;6.10;92.50
12039;DHT22;6080;48.818;9.526;2023-04-03T18:22:25;6.20;92.90
12039;DHT22;6080;48.818;9.526;2023-04-03T18:24:52;6.20;92.60
12039;DHT22;6080;48.818;9.526;2023-04-03T18:27:20;6.20;92.30
12039;DHT22;6080;48.818;9.526;2023-04-03T18:29:49;6.20;92.70
12039;DHT22;6080;48.818;9.526;2023-04-03T18:32:18;6.20;91.60
12039;DHT22;6080;48.818;9.526;2023-04-03T18:34:44;6.10;92.00
12039;DHT22;6080;48.818;9.526;2023-04-03T18:37:10;6.00;92.00
12039;DHT22;6080;48.818;9.526;2023-04-03T18:39:35;6.00;91.70
12039;DHT22;6080;48.818;9.526;2023-04-03T18:42:11;6.00;91.60
12039;DHT22;6080;48.818;9.526;2023-04-03T18:44:38;5.90;92.10
12039;DHT22;6080;48.818;9.526;2023-04-03T18:47:06;6.00;92.30
12039;DHT22;6080;48.818;9.526;2023-04-03T18:49:33;6.00;92.40
12039;DHT22;6080;48.818;9.526;2023-04-03T18:52:00;6.00;91.90
12039;DHT22;6080;48.818;9.526;2023-04-03T18:54:27;5.90;92.00
12039;DHT22;6080;48.818;9.526;2023-04-03T18:56:52;6.00;92.10
12039;DHT22;6080;48.818;9.526;2023-04-03T18:59:18;5.90;92.10
12039;DHT22;6080;48.818;9.526;2023-04-03T19:01:44;5.90;91.70
12039;DHT22;6080;48.818;9.526;2023-04-03T19:04:10;5.80;92.10
12039;DHT22;6080;48.818;9.526;2023-04-03T19:06:36;5.70;92.20
12039;DHT22;6080;48.818;9.526;2023-04-03T19:09:04;5.70;92.10
12039;DHT22;6080;48.818;9.526;2023-04-03T19:11:30;5.70;92.40
12039;DHT22;6080;48.818;9.526;2023-04-03T19:13:56;5.60;92.00
12039;DHT22;6080;48.818;9.526;2023-04-03T19:16:22;5.50;92.10
12039;DHT22;6080;48.818;9.526;2023-04-03T19:18:48;5.50;92.20
12039;DHT22;6080;48.818;9.526;2023-04-03T19:21:14;5.40;93.30
12039;DHT22;6080;48.818;9.526;2023-04-03T19:23:41;5.50;94.20
12039;DHT22;6080;48.818;9.526;2023-04-03T19:26:11;5.50;93.20
12039;DHT22;6080;48.818;9.526;2023-04-03T19:28:38;5.30;92.80
12039;DHT22;6080;48.818;9.526;2023-04-03T19:31:13;5.20;92.70
12039;DHT22;6080;48.818;9.526;2023-04-03T19:33:39;5.10;92.80
12039;DHT22;6080;48.818;9.526;2023-04-03T19:36:09;5.00;93.30
12039;DHT22;6080;48.818;9.526;2023-04-03T19:38:36;4.90;93.10
12039;DHT22;6080;48.818;9.526;2023-04-03T19:41:07;4.80;93.20
12039;DHT22;6080;48.818;9.526;2023-04-03T19:43:34;4.70;93.50
12039;DHT22;6080;48.818;9.526;2023-04-03T19:46:00;4.70;93.50
12039;DHT22;6080;48.818;9.526;2023-04-03T19:48:26;4.60;93.70
12039;DHT22;6080;48.818;9.526;2023-04-03T19:50:52;4.50;93.90
12039;DHT22;6080;48.818;9.526;2023-04-03T19:53:18;4.40;94.10
12039;DHT22;6080;48.818;9.526;2023-04-03T19:55:47;4.40;94.10
12039;DHT22;6080;48.818;9.526;2023-04-03T19:58:13;4.30;94.40
12039;DHT22;6080;48.818;9.526;2023-04-03T20:00:39;4.30;94.60
12039;DHT22;6080;48.818;9.526;2023-04-03T20:03:05;4.20;95.00
12039;DHT22;6080;48.818;9.526;2023-04-03T20:05:31;4.10;95.00
12039;DHT22;6080;48.818;9.526;2023-04-03T20:07:57;4.00;95.20
12039;DHT22;6080;48.818;9.526;2023-04-03T20:10:23;4.00;95.50
12039;DHT22;6080;48.818;9.526;2023-04-03T20:12:49;4.00;95.40
12039;DHT22;6080;48.818;9.526;2023-04-03T20:15:16;3.90;95.60
12039;DHT22;6080;48.818;9.526;2023-04-03T20:17:42;4.00;95.70
12039;DHT22;6080;48.818;9.526;2023-04-03T20:20:08;3.90;95.60
12039;DHT22;6080;48.818;9.526;2023-04-03T20:22:36;3.90;95.90
12039;DHT22;6080;48.818;9.526;2023-04-03T20:25:07;3.80;95.90
12039;DHT22;6080;48.818;9.526;2023-04-03T20:27:33;3.80;96.30
12039;DHT22;6080;48.818;9.526;2023-04-03T20:30:00;3.70;96.60
12039;DHT22;6080;48.818;9.526;2023-04-03T20:32:25;3.70;96.60
12039;DHT22;6080;48.818;9.526;2023-04-03T20:34:52;3.60;96.60
12039;DHT22;6080;48.818;9.526;2023-04-03T20:37:19;3.60;96.70
12039;DHT22;6080;48.818;9.526;2023-04-03T20:39:46;3.60;96.80
12039;DHT22;6080;48.818;9.526;2023-04-03T20:42:12;3.50;96.80
12039;DHT22;6080;48.818;9.526;2023-04-03T20:44:38;3.50;97.20
12039;DHT22;6080;48.818;9.526;2023-04-03T20:47:04;3.50;97.50
12039;DHT22;6080;48.818;9.526;2023-04-03T20:49:30;3.40;97.80